Drake, ND

12:17 PM CDT on July 13, 2014 (GMT -0500)
Harvey (K5H4) Elev 1608 ft | 47.79 °N, 99.93 °W | Change Station
Active Advisory: Flood Warning Active Notice: Public Information Statement

Current weather conditions updated 42 minutes ago

Clear
Clear
66 °F
Feels Like 66 °F
N
18
Wind Variable Wind from WNW
Gusts 25 mph

Today is forecast to be Much Cooler than yesterday.

Today
High -- | Low -- °F
--% Chance of Precip.
Yesterday
High -- | Low -- °F
Precip. -- in
5:56 AM 9:37 PM
Full, 98% visible
Pressure 30.04 in
Visibility 10.0 miles
Clouds Clear
Dew Point 46 °F
Humidity 49%
Rainfall 0.00 in
Snow Depth Not available.
UV 8 out of 12
Pollen 5.30 out of 12
Air Quality Not available.
Flu Activity Sporadic
METAR K5H4 131635Z AUTO 30016G22KT 10SM CLR 19/08 A3004 RMK AO2

More Conditions Fewer Conditions

Pressure 30.04 in
Visibility 10.0 miles
Clouds Clear
Dew Point 46 °F
Humidity 49%
Rainfall 0.00 in
Snow Depth Not available.
UV 8 out of 12
Pollen 5.30 out of 12
Air Quality Not available.
Flu Activity Sporadic
METAR K5H4 131635Z AUTO 30016G22KT 10SM CLR 19/08 A3004 RMK AO2

More Conditions Fewer Conditions

10-Day Weather Forecast

Almanac

Astronomy

Jul. 13, 2014 Rise Set
Actual Time 5:56 AM CDT 9:37 PM CDT
Civil Twilight 5:16 AM CDT 10:17 PM CDT
Nautical Twilight 4:23 AM CDT 11:10 PM CDT
Astronomical Twilight 3:06 AM CDT 12:25 AM CDT
Moon 10:13 PM CDT 7:39 AM CDT
Length of Visible Light 17h 00m
Length of Day
15h 41m
Tomorrow will be 1m 46s shorter.
Full, 98% of the Moon is Illuminated
Today
Full
Jul 18
Last Quarter
Jul 26
New
Aug 3
First Quarter
Aug 10
Full

Today's Extremes

State Highs State Lows

Community

WunderPhotos

Upload Photos

1,733,285 photos uploaded!

Nearby

Snow Depth

Station Depth Elevation
No new snow has been reported.

Earthquake Activity

City Distance Mag. Time & Date
No recent earthquake activity has been reported nearby.
Minimum magnitude displayed is 2.5.

Coastal Water Temperatures

Place Temperature
No Stations Reporting

Nearby Weather Stations

There are no personal weather stations in this area.